sensor_id;sensor_type;location;lat;lon;timestamp;P1;durP1;ratioP1;P2;durP2;ratioP2
25567;SDS011;13455;51.480;7.594;2023-01-10T00:00:36;20.95;;;7.78;;
25567;SDS011;13455;51.480;7.594;2023-01-10T00:03:03;18.75;;;7.90;;
25567;SDS011;13455;51.480;7.594;2023-01-10T00:05:30;19.58;;;8.30;;
25567;SDS011;13455;51.480;7.594;2023-01-10T00:07:56;19.77;;;8.02;;
25567;SDS011;13455;51.480;7.594;2023-01-10T00:10:23;20.17;;;8.52;;
25567;SDS011;13455;51.480;7.594;2023-01-10T00:12:49;19.15;;;8.40;;
25567;SDS011;13455;51.480;7.594;2023-01-10T00:15:34;20.85;;;8.95;;
25567;SDS011;13455;51.480;7.594;2023-01-10T00:18:00;21.37;;;9.17;;
25567;SDS011;13455;51.480;7.594;2023-01-10T00:20:26;24.73;;;9.10;;
25567;SDS011;13455;51.480;7.594;2023-01-10T00:22:52;20.45;;;9.23;;
25567;SDS011;13455;51.480;7.594;2023-01-10T00:25:18;21.70;;;9.48;;
25567;SDS011;13455;51.480;7.594;2023-01-10T00:27:45;21.45;;;9.23;;
25567;SDS011;13455;51.480;7.594;2023-01-10T00:30:14;18.13;;;9.20;;
25567;SDS011;13455;51.480;7.594;2023-01-10T00:32:41;21.05;;;9.68;;
25567;SDS011;13455;51.480;7.594;2023-01-10T00:35:07;20.60;;;9.55;;
25567;SDS011;13455;51.480;7.594;2023-01-10T00:37:35;19.80;;;9.63;;
25567;SDS011;13455;51.480;7.594;2023-01-10T00:40:01;23.05;;;9.50;;
25567;SDS011;13455;51.480;7.594;2023-01-10T00:42:27;22.23;;;9.18;;
25567;SDS011;13455;51.480;7.594;2023-01-10T00:45:11;18.80;;;9.23;;
25567;SDS011;13455;51.480;7.594;2023-01-10T00:47:37;22.52;;;9.63;;
25567;SDS011;13455;51.480;7.594;2023-01-10T00:50:04;25.25;;;9.07;;
25567;SDS011;13455;51.480;7.594;2023-01-10T00:52:30;22.02;;;9.32;;
25567;SDS011;13455;51.480;7.594;2023-01-10T00:54:56;20.48;;;8.15;;
25567;SDS011;13455;51.480;7.594;2023-01-10T00:57:22;21.90;;;8.77;;
25567;SDS011;13455;51.480;7.594;2023-01-10T00:59:48;24.02;;;8.95;;
25567;SDS011;13455;51.480;7.594;2023-01-10T01:02:14;21.23;;;9.23;;
25567;SDS011;13455;51.480;7.594;2023-01-10T01:04:40;22.45;;;8.48;;
25567;SDS011;13455;51.480;7.594;2023-01-10T01:07:07;23.15;;;7.80;;
25567;SDS011;13455;51.480;7.594;2023-01-10T01:09:33;18.25;;;7.80;;
25567;SDS011;13455;51.480;7.594;2023-01-10T01:12:19;19.50;;;7.68;;
25567;SDS011;13455;51.480;7.594;2023-01-10T01:14:44;21.55;;;7.50;;
25567;SDS011;13455;51.480;7.594;2023-01-10T01:17:10;21.42;;;7.43;;
25567;SDS011;13455;51.480;7.594;2023-01-10T01:19:36;21.27;;;7.20;;
25567;SDS011;13455;51.480;7.594;2023-01-10T01:22:02;21.15;;;7.45;;
25567;SDS011;13455;51.480;7.594;2023-01-10T01:24:28;18.85;;;6.75;;
25567;SDS011;13455;51.480;7.594;2023-01-10T01:26:54;19.48;;;6.82;;
25567;SDS011;13455;51.480;7.594;2023-01-10T01:29:20;20.92;;;6.43;;
25567;SDS011;13455;51.480;7.594;2023-01-10T01:31:46;16.52;;;6.90;;
25567;SDS011;13455;51.480;7.594;2023-01-10T01:34:12;16.38;;;6.32;;
25567;SDS011;13455;51.480;7.594;2023-01-10T01:36:38;14.20;;;6.20;;
25567;SDS011;13455;51.480;7.594;2023-01-10T01:39:04;14.77;;;6.10;;
25567;SDS011;13455;51.480;7.594;2023-01-10T01:41:30;17.30;;;6.03;;
25567;SDS011;13455;51.480;7.594;2023-01-10T01:44:16;20.83;;;5.63;;
25567;SDS011;13455;51.480;7.594;2023-01-10T01:46:47;18.00;;;5.80;;
25567;SDS011;13455;51.480;7.594;2023-01-10T01:49:19;16.85;;;5.70;;
25567;SDS011;13455;51.480;7.594;2023-01-10T01:51:50;17.42;;;5.47;;
25567;SDS011;13455;51.480;7.594;2023-01-10T01:54:19;18.17;;;5.25;;
25567;SDS011;13455;51.480;7.594;2023-01-10T01:56:59;13.85;;;5.15;;
25567;SDS011;13455;51.480;7.594;2023-01-10T01:59:27;18.00;;;5.35;;
25567;SDS011;13455;51.480;7.594;2023-01-10T02:01:56;15.77;;;4.82;;
25567;SDS011;13455;51.480;7.594;2023-01-10T02:04:34;16.90;;;5.05;;
25567;SDS011;13455;51.480;7.594;2023-01-10T02:07:01;15.80;;;4.80;;
25567;SDS011;13455;51.480;7.594;2023-01-10T02:09:28;17.80;;;4.70;;
25567;SDS011;13455;51.480;7.594;2023-01-10T02:11:56;16.77;;;4.82;;
25567;SDS011;13455;51.480;7.594;2023-01-10T02:14:23;16.37;;;4.70;;
25567;SDS011;13455;51.480;7.594;2023-01-10T02:16:49;15.13;;;4.30;;
25567;SDS011;13455;51.480;7.594;2023-01-10T02:27:05;17.50;;;4.50;;
25567;SDS011;13455;51.480;7.594;2023-01-10T02:32:21;16.77;;;4.20;;
25567;SDS011;13455;51.480;7.594;2023-01-10T02:34:52;18.43;;;4.63;;
25567;SDS011;13455;51.480;7.594;2023-01-10T02:43:02;15.75;;;3.70;;
25567;SDS011;13455;51.480;7.594;2023-01-10T02:45:53;17.00;;;4.00;;
25567;SDS011;13455;51.480;7.594;2023-01-10T02:48:17;15.37;;;3.83;;
25567;SDS011;13455;51.480;7.594;2023-01-10T02:50:46;15.35;;;3.80;;
25567;SDS011;13455;51.480;7.594;2023-01-10T02:55:49;15.45;;;3.60;;
25567;SDS011;13455;51.480;7.594;2023-01-10T02:58:43;11.63;;;3.50;;
25567;SDS011;13455;51.480;7.594;2023-01-10T03:03:46;16.27;;;3.55;;
25567;SDS011;13455;51.480;7.594;2023-01-10T03:06:22;11.50;;;3.10;;
25567;SDS011;13455;51.480;7.594;2023-01-10T03:11:32;14.10;;;3.50;;
25567;SDS011;13455;51.480;7.594;2023-01-10T03:14:09;15.18;;;3.17;;
25567;SDS011;13455;51.480;7.594;2023-01-10T03:16:36;15.40;;;3.15;;
25567;SDS011;13455;51.480;7.594;2023-01-10T03:19:09;14.07;;;3.20;;
25567;SDS011;13455;51.480;7.594;2023-01-10T03:21:36;13.82;;;3.03;;
25567;SDS011;13455;51.480;7.594;2023-01-10T03:24:04;17.65;;;2.80;;
25567;SDS011;13455;51.480;7.594;2023-01-10T03:32:12;16.98;;;3.00;;
25567;SDS011;13455;51.480;7.594;2023-01-10T03:34:40;17.83;;;3.38;;
25567;SDS011;13455;51.480;7.594;2023-01-10T03:42:14;14.57;;;2.83;;
25567;SDS011;13455;51.480;7.594;2023-01-10T03:49:41;17.73;;;3.40;;
25567;SDS011;13455;51.480;7.594;2023-01-10T03:52:09;16.77;;;3.07;;
25567;SDS011;13455;51.480;7.594;2023-01-10T03:54:36;16.20;;;3.10;;
25567;SDS011;13455;51.480;7.594;2023-01-10T03:57:04;17.17;;;3.07;;
25567;SDS011;13455;51.480;7.594;2023-01-10T03:59:30;15.10;;;3.10;;
25567;SDS011;13455;51.480;7.594;2023-01-10T04:01:56;15.63;;;3.03;;
25567;SDS011;13455;51.480;7.594;2023-01-10T04:04:22;15.20;;;3.10;;
25567;SDS011;13455;51.480;7.594;2023-01-10T04:06:48;17.60;;;3.63;;
25567;SDS011;13455;51.480;7.594;2023-01-10T04:09:14;18.70;;;4.00;;
25567;SDS011;13455;51.480;7.594;2023-01-10T04:11:40;16.90;;;4.25;;
25567;SDS011;13455;51.480;7.594;2023-01-10T04:14:06;13.03;;;3.43;;
25567;SDS011;13455;51.480;7.594;2023-01-10T04:16:32;18.42;;;4.30;;
25567;SDS011;13455;51.480;7.594;2023-01-10T04:18:58;18.33;;;4.40;;
25567;SDS011;13455;51.480;7.594;2023-01-10T04:21:24;15.85;;;4.20;;
25567;SDS011;13455;51.480;7.594;2023-01-10T04:23:50;16.73;;;4.43;;
25567;SDS011;13455;51.480;7.594;2023-01-10T04:26:17;15.85;;;4.65;;
25567;SDS011;13455;51.480;7.594;2023-01-10T04:28:43;19.83;;;5.13;;
25567;SDS011;13455;51.480;7.594;2023-01-10T04:31:09;21.33;;;4.82;;
25567;SDS011;13455;51.480;7.594;2023-01-10T04:33:35;16.20;;;4.40;;
25567;SDS011;13455;51.480;7.594;2023-01-10T04:36:03;15.85;;;4.90;;
25567;SDS011;13455;51.480;7.594;2023-01-10T04:38:29;15.88;;;5.00;;
25567;SDS011;13455;51.480;7.594;2023-01-10T04:40:55;16.60;;;5.17;;
25567;SDS011;13455;51.480;7.594;2023-01-10T04:43:22;17.93;;;4.90;;
25567;SDS011;13455;51.480;7.594;2023-01-10T04:45:48;15.32;;;4.78;;
25567;SDS011;13455;51.480;7.594;2023-01-10T04:48:14;15.77;;;4.80;;
25567;SDS011;13455;51.480;7.594;2023-01-10T04:50:40;17.05;;;4.90;;
25567;SDS011;13455;51.480;7.594;2023-01-10T04:53:06;19.55;;;5.03;;
25567;SDS011;13455;51.480;7.594;2023-01-10T04:55:32;17.40;;;5.17;;
25567;SDS011;13455;51.480;7.594;2023-01-10T04:57:58;17.15;;;5.07;;
25567;SDS011;13455;51.480;7.594;2023-01-10T05:00:26;17.13;;;5.22;;
25567;SDS011;13455;51.480;7.594;2023-01-10T05:02:55;17.23;;;4.47;;
25567;SDS011;13455;51.480;7.594;2023-01-10T05:05:21;14.75;;;4.53;;
25567;SDS011;13455;51.480;7.594;2023-01-10T05:07:47;16.35;;;4.75;;
25567;SDS011;13455;51.480;7.594;2023-01-10T05:10:13;16.88;;;4.60;;
25567;SDS011;13455;51.480;7.594;2023-01-10T05:12:39;15.60;;;4.78;;
25567;SDS011;13455;51.480;7.594;2023-01-10T05:15:06;18.48;;;4.80;;
25567;SDS011;13455;51.480;7.594;2023-01-10T05:17:32;15.90;;;4.30;;
25567;SDS011;13455;51.480;7.594;2023-01-10T05:19:58;14.68;;;4.25;;
25567;SDS011;13455;51.480;7.594;2023-01-10T05:22:25;14.85;;;4.50;;
25567;SDS011;13455;51.480;7.594;2023-01-10T05:24:51;17.50;;;4.30;;
25567;SDS011;13455;51.480;7.594;2023-01-10T05:27:17;12.63;;;4.35;;
25567;SDS011;13455;51.480;7.594;2023-01-10T05:29:43;15.95;;;4.07;;
25567;SDS011;13455;51.480;7.594;2023-01-10T05:32:09;15.75;;;4.40;;
25567;SDS011;13455;51.480;7.594;2023-01-10T05:34:35;17.92;;;4.40;;
25567;SDS011;13455;51.480;7.594;2023-01-10T05:37:01;16.73;;;4.28;;
25567;SDS011;13455;51.480;7.594;2023-01-10T05:39:27;18.63;;;4.50;;
25567;SDS011;13455;51.480;7.594;2023-01-10T05:41:53;17.40;;;4.22;;
25567;SDS011;13455;51.480;7.594;2023-01-10T05:44:19;17.50;;;4.30;;
25567;SDS011;13455;51.480;7.594;2023-01-10T05:46:45;15.87;;;3.87;;
25567;SDS011;13455;51.480;7.594;2023-01-10T05:49:11;17.83;;;3.95;;
25567;SDS011;13455;51.480;7.594;2023-01-10T05:51:37;15.88;;;4.20;;
25567;SDS011;13455;51.480;7.594;2023-01-10T05:54:04;21.73;;;4.55;;
25567;SDS011;13455;51.480;7.594;2023-01-10T05:56:30;17.55;;;4.25;;
25567;SDS011;13455;51.480;7.594;2023-01-10T05:58:56;22.55;;;4.75;;
25567;SDS011;13455;51.480;7.594;2023-01-10T06:01:22;19.23;;;4.50;;
25567;SDS011;13455;51.480;7.594;2023-01-10T06:03:48;17.90;;;4.55;;
25567;SDS011;13455;51.480;7.594;2023-01-10T06:06:14;20.80;;;4.38;;
25567;SDS011;13455;51.480;7.594;2023-01-10T06:08:40;20.40;;;4.45;;
25567;SDS011;13455;51.480;7.594;2023-01-10T06:11:06;17.75;;;4.10;;
25567;SDS011;13455;51.480;7.594;2023-01-10T06:13:32;21.73;;;4.80;;
25567;SDS011;13455;51.480;7.594;2023-01-10T06:15:58;18.58;;;3.97;;
25567;SDS011;13455;51.480;7.594;2023-01-10T06:18:24;18.00;;;4.03;;
25567;SDS011;13455;51.480;7.594;2023-01-10T06:20:50;17.42;;;4.35;;
25567;SDS011;13455;51.480;7.594;2023-01-10T06:23:16;18.30;;;4.00;;
25567;SDS011;13455;51.480;7.594;2023-01-10T06:25:42;21.15;;;4.65;;
25567;SDS011;13455;51.480;7.594;2023-01-10T06:28:09;18.00;;;4.30;;
25567;SDS011;13455;51.480;7.594;2023-01-10T06:30:35;21.67;;;4.20;;
25567;SDS011;13455;51.480;7.594;2023-01-10T06:33:02;15.73;;;4.15;;
25567;SDS011;13455;51.480;7.594;2023-01-10T06:35:28;19.33;;;4.38;;
25567;SDS011;13455;51.480;7.594;2023-01-10T06:37:54;18.63;;;4.43;;
25567;SDS011;13455;51.480;7.594;2023-01-10T06:40:20;19.27;;;4.03;;
25567;SDS011;13455;51.480;7.594;2023-01-10T06:42:47;19.27;;;4.40;;
25567;SDS011;13455;51.480;7.594;2023-01-10T06:45:13;19.27;;;4.83;;
25567;SDS011;13455;51.480;7.594;2023-01-10T06:47:39;20.80;;;5.32;;
25567;SDS011;13455;51.480;7.594;2023-01-10T06:50:05;20.38;;;5.13;;
25567;SDS011;13455;51.480;7.594;2023-01-10T06:52:31;20.85;;;5.32;;
25567;SDS011;13455;51.480;7.594;2023-01-10T06:54:58;20.88;;;5.55;;
25567;SDS011;13455;51.480;7.594;2023-01-10T06:57:23;22.08;;;5.20;;
25567;SDS011;13455;51.480;7.594;2023-01-10T06:59:49;20.25;;;5.32;;
25567;SDS011;13455;51.480;7.594;2023-01-10T07:02:16;19.55;;;5.47;;
25567;SDS011;13455;51.480;7.594;2023-01-10T07:04:42;21.55;;;5.85;;
25567;SDS011;13455;51.480;7.594;2023-01-10T07:07:08;22.23;;;6.20;;
25567;SDS011;13455;51.480;7.594;2023-01-10T07:09:34;21.77;;;6.15;;
25567;SDS011;13455;51.480;7.594;2023-01-10T07:12:00;29.33;;;6.47;;
25567;SDS011;13455;51.480;7.594;2023-01-10T07:14:25;25.77;;;6.78;;
25567;SDS011;13455;51.480;7.594;2023-01-10T07:16:51;23.63;;;6.55;;
25567;SDS011;13455;51.480;7.594;2023-01-10T07:19:17;28.20;;;7.18;;
25567;SDS011;13455;51.480;7.594;2023-01-10T07:21:44;24.27;;;6.80;;
25567;SDS011;13455;51.480;7.594;2023-01-10T07:24:10;24.00;;;6.97;;
25567;SDS011;13455;51.480;7.594;2023-01-10T07:26:36;25.50;;;7.07;;
25567;SDS011;13455;51.480;7.594;2023-01-10T07:29:02;26.88;;;7.10;;
25567;SDS011;13455;51.480;7.594;2023-01-10T07:31:29;26.92;;;6.93;;
25567;SDS011;13455;51.480;7.594;2023-01-10T07:33:55;21.73;;;6.53;;
25567;SDS011;13455;51.480;7.594;2023-01-10T07:36:21;27.05;;;7.22;;
25567;SDS011;13455;51.480;7.594;2023-01-10T07:38:47;28.48;;;7.63;;
25567;SDS011;13455;51.480;7.594;2023-01-10T07:41:13;25.60;;;7.35;;
25567;SDS011;13455;51.480;7.594;2023-01-10T07:43:39;28.73;;;7.37;;
25567;SDS011;13455;51.480;7.594;2023-01-10T07:46:05;27.48;;;7.40;;
25567;SDS011;13455;51.480;7.594;2023-01-10T07:48:33;22.23;;;6.85;;
25567;SDS011;13455;51.480;7.594;2023-01-10T07:50:59;23.95;;;7.13;;
25567;SDS011;13455;51.480;7.594;2023-01-10T07:53:26;26.80;;;7.60;;
25567;SDS011;13455;51.480;7.594;2023-01-10T07:55:52;28.85;;;7.65;;
25567;SDS011;13455;51.480;7.594;2023-01-10T07:58:19;27.52;;;7.35;;
25567;SDS011;13455;51.480;7.594;2023-01-10T08:00:45;26.50;;;6.70;;
25567;SDS011;13455;51.480;7.594;2023-01-10T08:03:13;26.92;;;7.57;;
25567;SDS011;13455;51.480;7.594;2023-01-10T08:05:39;24.47;;;7.40;;
25567;SDS011;13455;51.480;7.594;2023-01-10T08:08:05;30.38;;;7.40;;
25567;SDS011;13455;51.480;7.594;2023-01-10T08:10:32;26.10;;;6.70;;
25567;SDS011;13455;51.480;7.594;2023-01-10T08:12:58;29.08;;;7.38;;
25567;SDS011;13455;51.480;7.594;2023-01-10T08:15:24;32.63;;;7.55;;
25567;SDS011;13455;51.480;7.594;2023-01-10T08:17:50;25.83;;;7.10;;
25567;SDS011;13455;51.480;7.594;2023-01-10T08:20:16;28.00;;;7.20;;
25567;SDS011;13455;51.480;7.594;2023-01-10T08:22:42;28.42;;;6.88;;
25567;SDS011;13455;51.480;7.594;2023-01-10T08:25:09;30.50;;;6.88;;
25567;SDS011;13455;51.480;7.594;2023-01-10T08:27:35;31.67;;;7.28;;
25567;SDS011;13455;51.480;7.594;2023-01-10T08:30:01;25.17;;;6.90;;
25567;SDS011;13455;51.480;7.594;2023-01-10T08:32:27;29.98;;;7.35;;
25567;SDS011;13455;51.480;7.594;2023-01-10T08:34:53;29.63;;;6.97;;
25567;SDS011;13455;51.480;7.594;2023-01-10T08:37:19;29.77;;;7.00;;
25567;SDS011;13455;51.480;7.594;2023-01-10T08:39:45;29.30;;;7.07;;
25567;SDS011;13455;51.480;7.594;2023-01-10T08:42:11;31.77;;;7.30;;
25567;SDS011;13455;51.480;7.594;2023-01-10T08:44:37;30.60;;;7.63;;
25567;SDS011;13455;51.480;7.594;2023-01-10T08:47:03;29.17;;;7.35;;
25567;SDS011;13455;51.480;7.594;2023-01-10T08:49:29;26.77;;;7.10;;
25567;SDS011;13455;51.480;7.594;2023-01-10T08:51:55;29.38;;;7.75;;
25567;SDS011;13455;51.480;7.594;2023-01-10T08:54:21;28.65;;;8.10;;
25567;SDS011;13455;51.480;7.594;2023-01-10T08:56:47;29.95;;;8.35;;
25567;SDS011;13455;51.480;7.594;2023-01-10T08:59:13;29.35;;;8.05;;
25567;SDS011;13455;51.480;7.594;2023-01-10T09:01:40;31.95;;;8.48;;
25567;SDS011;13455;51.480;7.594;2023-01-10T09:04:06;30.65;;;8.43;;
25567;SDS011;13455;51.480;7.594;2023-01-10T09:06:32;26.70;;;8.05;;
25567;SDS011;13455;51.480;7.594;2023-01-10T09:08:58;33.17;;;8.38;;
25567;SDS011;13455;51.480;7.594;2023-01-10T09:11:24;33.80;;;8.63;;
25567;SDS011;13455;51.480;7.594;2023-01-10T09:13:50;32.85;;;8.57;;
25567;SDS011;13455;51.480;7.594;2023-01-10T09:16:16;37.50;;;8.73;;
25567;SDS011;13455;51.480;7.594;2023-01-10T09:18:43;32.60;;;8.60;;
25567;SDS011;13455;51.480;7.594;2023-01-10T09:21:09;32.13;;;8.13;;
25567;SDS011;13455;51.480;7.594;2023-01-10T09:23:35;32.45;;;7.70;;
25567;SDS011;13455;51.480;7.594;2023-01-10T09:26:02;33.22;;;7.90;;
25567;SDS011;13455;51.480;7.594;2023-01-10T09:28:28;32.15;;;7.85;;
25567;SDS011;13455;51.480;7.594;2023-01-10T09:30:54;31.00;;;7.95;;
25567;SDS011;13455;51.480;7.594;2023-01-10T09:33:20;37.05;;;8.13;;
25567;SDS011;13455;51.480;7.594;2023-01-10T09:35:46;30.00;;;8.30;;
25567;SDS011;13455;51.480;7.594;2023-01-10T09:38:13;36.58;;;8.40;;
25567;SDS011;13455;51.480;7.594;2023-01-10T09:40:43;33.90;;;7.80;;
25567;SDS011;13455;51.480;7.594;2023-01-10T09:48:26;30.20;;;8.05;;
25567;SDS011;13455;51.480;7.594;2023-01-10T09:53:38;33.28;;;8.27;;
25567;SDS011;13455;51.480;7.594;2023-01-10T09:56:05;31.55;;;7.80;;
25567;SDS011;13455;51.480;7.594;2023-01-10T09:58:33;28.50;;;7.80;;
25567;SDS011;13455;51.480;7.594;2023-01-10T10:01:03;31.42;;;7.60;;
25567;SDS011;13455;51.480;7.594;2023-01-10T10:06:15;28.38;;;7.10;;
25567;SDS011;13455;51.480;7.594;2023-01-10T10:08:41;32.38;;;7.10;;
25567;SDS011;13455;51.480;7.594;2023-01-10T10:17:05;27.10;;;6.80;;
25567;SDS011;13455;51.480;7.594;2023-01-10T10:21:53;29.08;;;7.07;;
25567;SDS011;13455;51.480;7.594;2023-01-10T10:26:59;32.28;;;6.68;;
25567;SDS011;13455;51.480;7.594;2023-01-10T10:35:17;28.80;;;6.47;;
25567;SDS011;13455;51.480;7.594;2023-01-10T10:37:51;28.63;;;6.97;;
25567;SDS011;13455;51.480;7.594;2023-01-10T10:40:24;26.73;;;6.78;;
25567;SDS011;13455;51.480;7.594;2023-01-10T10:42:52;27.08;;;6.30;;
25567;SDS011;13455;51.480;7.594;2023-01-10T10:53:25;28.25;;;5.88;;
25567;SDS011;13455;51.480;7.594;2023-01-10T10:55:52;36.92;;;7.15;;
25567;SDS011;13455;51.480;7.594;2023-01-10T10:58:18;33.95;;;6.90;;
25567;SDS011;13455;51.480;7.594;2023-01-10T11:00:44;29.48;;;6.43;;
25567;SDS011;13455;51.480;7.594;2023-01-10T11:05:39;27.13;;;6.07;;
25567;SDS011;13455;51.480;7.594;2023-01-10T11:08:09;27.63;;;5.88;;
25567;SDS011;13455;51.480;7.594;2023-01-10T11:10:37;28.70;;;6.10;;
25567;SDS011;13455;51.480;7.594;2023-01-10T11:15:39;26.73;;;5.40;;
25567;SDS011;13455;51.480;7.594;2023-01-10T11:18:10;22.65;;;5.18;;
25567;SDS011;13455;51.480;7.594;2023-01-10T11:20:47;26.58;;;5.45;;
25567;SDS011;13455;51.480;7.594;2023-01-10T11:23:20;28.23;;;5.15;;
25567;SDS011;13455;51.480;7.594;2023-01-10T11:25:48;25.80;;;5.38;;
25567;SDS011;13455;51.480;7.594;2023-01-10T11:28:14;25.35;;;5.20;;
25567;SDS011;13455;51.480;7.594;2023-01-10T11:30:44;26.38;;;5.88;;
25567;SDS011;13455;51.480;7.594;2023-01-10T11:33:19;24.77;;;5.15;;
25567;SDS011;13455;51.480;7.594;2023-01-10T11:35:59;23.10;;;5.05;;
25567;SDS011;13455;51.480;7.594;2023-01-10T11:38:27;27.73;;;5.03;;
25567;SDS011;13455;51.480;7.594;2023-01-10T11:46:03;25.00;;;4.90;;
25567;SDS011;13455;51.480;7.594;2023-01-10T11:49:05;24.63;;;5.00;;
25567;SDS011;13455;51.480;7.594;2023-01-10T11:51:44;25.20;;;4.88;;
25567;SDS011;13455;51.480;7.594;2023-01-10T11:56:42;28.30;;;5.30;;
25567;SDS011;13455;51.480;7.594;2023-01-10T11:59:19;25.02;;;4.65;;
25567;SDS011;13455;51.480;7.594;2023-01-10T12:01:52;26.17;;;5.10;;
25567;SDS011;13455;51.480;7.594;2023-01-10T12:04:22;26.95;;;4.80;;
25567;SDS011;13455;51.480;7.594;2023-01-10T12:06:51;25.45;;;4.40;;
25567;SDS011;13455;51.480;7.594;2023-01-10T12:09:30;23.40;;;4.28;;
25567;SDS011;13455;51.480;7.594;2023-01-10T12:12:00;27.33;;;5.05;;
25567;SDS011;13455;51.480;7.594;2023-01-10T12:14:27;23.73;;;4.03;;
25567;SDS011;13455;51.480;7.594;2023-01-10T12:16:59;26.40;;;4.53;;
25567;SDS011;13455;51.480;7.594;2023-01-10T12:19:27;21.63;;;4.22;;
25567;SDS011;13455;51.480;7.594;2023-01-10T12:21:53;22.45;;;4.32;;
25567;SDS011;13455;51.480;7.594;2023-01-10T12:24:25;23.17;;;4.27;;
25567;SDS011;13455;51.480;7.594;2023-01-10T12:26:58;26.10;;;4.75;;
25567;SDS011;13455;51.480;7.594;2023-01-10T12:29:26;28.35;;;4.88;;
25567;SDS011;13455;51.480;7.594;2023-01-10T12:31:58;20.40;;;3.72;;
25567;SDS011;13455;51.480;7.594;2023-01-10T12:34:30;24.55;;;4.13;;
25567;SDS011;13455;51.480;7.594;2023-01-10T12:37:18;20.88;;;3.40;;
25567;SDS011;13455;51.480;7.594;2023-01-10T12:39:50;26.73;;;4.03;;
25567;SDS011;13455;51.480;7.594;2023-01-10T12:45:46;25.03;;;3.80;;
25567;SDS011;13455;51.480;7.594;2023-01-10T12:48:23;17.05;;;3.58;;
25567;SDS011;13455;51.480;7.594;2023-01-10T12:51:03;23.15;;;4.30;;
25567;SDS011;13455;51.480;7.594;2023-01-10T12:53:33;22.00;;;3.88;;
25567;SDS011;13455;51.480;7.594;2023-01-10T12:56:06;25.73;;;3.85;;
25567;SDS011;13455;51.480;7.594;2023-01-10T12:58:38;18.83;;;3.55;;
25567;SDS011;13455;51.480;7.594;2023-01-10T13:01:07;20.40;;;3.88;;
25567;SDS011;13455;51.480;7.594;2023-01-10T13:03:39;22.10;;;3.83;;
25567;SDS011;13455;51.480;7.594;2023-01-10T13:06:05;21.55;;;4.22;;
25567;SDS011;13455;51.480;7.594;2023-01-10T13:08:32;21.13;;;3.53;;
25567;SDS011;13455;51.480;7.594;2023-01-10T13:11:00;16.48;;;3.20;;
25567;SDS011;13455;51.480;7.594;2023-01-10T13:13:28;24.85;;;3.47;;
25567;SDS011;13455;51.480;7.594;2023-01-10T13:21:34;17.98;;;3.10;;
25567;SDS011;13455;51.480;7.594;2023-01-10T13:24:03;23.20;;;3.58;;
25567;SDS011;13455;51.480;7.594;2023-01-10T13:26:49;21.75;;;3.50;;
25567;SDS011;13455;51.480;7.594;2023-01-10T13:29:18;20.73;;;3.30;;
25567;SDS011;13455;51.480;7.594;2023-01-10T13:31:48;15.35;;;2.72;;
25567;SDS011;13455;51.480;7.594;2023-01-10T13:34:20;19.00;;;3.33;;
25567;SDS011;13455;51.480;7.594;2023-01-10T13:36:58;19.00;;;3.15;;
25567;SDS011;13455;51.480;7.594;2023-01-10T13:39:31;17.60;;;3.42;;
25567;SDS011;13455;51.480;7.594;2023-01-10T13:52:53;13.27;;;2.90;;
25567;SDS011;13455;51.480;7.594;2023-01-10T13:57:58;18.67;;;3.50;;
25567;SDS011;13455;51.480;7.594;2023-01-10T14:00:45;15.35;;;3.10;;
25567;SDS011;13455;51.480;7.594;2023-01-10T14:09:04;18.10;;;3.20;;
25567;SDS011;13455;51.480;7.594;2023-01-10T14:11:51;16.05;;;2.78;;
25567;SDS011;13455;51.480;7.594;2023-01-10T14:16:56;18.93;;;2.87;;
25567;SDS011;13455;51.480;7.594;2023-01-10T14:19:34;14.77;;;3.13;;
25567;SDS011;13455;51.480;7.594;2023-01-10T14:22:00;18.67;;;3.00;;
25567;SDS011;13455;51.480;7.594;2023-01-10T14:27:45;15.20;;;2.75;;
25567;SDS011;13455;51.480;7.594;2023-01-10T14:30:22;15.88;;;2.85;;
25567;SDS011;13455;51.480;7.594;2023-01-10T14:32:50;17.35;;;2.85;;
25567;SDS011;13455;51.480;7.594;2023-01-10T14:35:18;14.48;;;2.92;;
25567;SDS011;13455;51.480;7.594;2023-01-10T14:37:56;18.95;;;2.70;;
25567;SDS011;13455;51.480;7.594;2023-01-10T14:43:06;16.00;;;2.95;;
25567;SDS011;13455;51.480;7.594;2023-01-10T14:48:24;16.73;;;2.90;;
25567;SDS011;13455;51.480;7.594;2023-01-10T14:51:05;17.50;;;3.00;;
25567;SDS011;13455;51.480;7.594;2023-01-10T14:53:32;16.58;;;2.80;;
25567;SDS011;13455;51.480;7.594;2023-01-10T14:55:57;16.87;;;2.90;;
25567;SDS011;13455;51.480;7.594;2023-01-10T14:58:23;19.53;;;2.97;;
25567;SDS011;13455;51.480;7.594;2023-01-10T15:00:49;17.23;;;3.37;;
25567;SDS011;13455;51.480;7.594;2023-01-10T15:03:17;16.42;;;3.45;;
25567;SDS011;13455;51.480;7.594;2023-01-10T15:05:46;21.00;;;2.93;;
25567;SDS011;13455;51.480;7.594;2023-01-10T15:08:21;15.10;;;2.95;;
25567;SDS011;13455;51.480;7.594;2023-01-10T15:10:53;15.13;;;3.55;;
25567;SDS011;13455;51.480;7.594;2023-01-10T15:13:32;13.55;;;2.80;;
25567;SDS011;13455;51.480;7.594;2023-01-10T15:16:00;16.10;;;3.20;;
25567;SDS011;13455;51.480;7.594;2023-01-10T15:21:02;14.60;;;3.10;;
25567;SDS011;13455;51.480;7.594;2023-01-10T15:23:33;20.05;;;5.00;;
25567;SDS011;13455;51.480;7.594;2023-01-10T15:26:00;14.05;;;3.10;;
25567;SDS011;13455;51.480;7.594;2023-01-10T15:28:29;17.80;;;3.37;;
25567;SDS011;13455;51.480;7.594;2023-01-10T15:30:55;12.75;;;2.55;;
25567;SDS011;13455;51.480;7.594;2023-01-10T15:33:26;13.13;;;2.75;;
25567;SDS011;13455;51.480;7.594;2023-01-10T15:35:54;15.07;;;3.00;;
25567;SDS011;13455;51.480;7.594;2023-01-10T15:38:21;13.30;;;3.10;;
25567;SDS011;13455;51.480;7.594;2023-01-10T15:40:55;13.70;;;2.85;;
25567;SDS011;13455;51.480;7.594;2023-01-10T15:45:49;15.68;;;2.83;;
25567;SDS011;13455;51.480;7.594;2023-01-10T15:48:35;14.40;;;3.28;;
25567;SDS011;13455;51.480;7.594;2023-01-10T15:59:48;20.40;;;4.50;;
25567;SDS011;13455;51.480;7.594;2023-01-10T16:04:48;16.00;;;3.28;;
25567;SDS011;13455;51.480;7.594;2023-01-10T16:07:26;14.70;;;3.15;;
25567;SDS011;13455;51.480;7.594;2023-01-10T16:10:07;18.45;;;3.05;;
25567;SDS011;13455;51.480;7.594;2023-01-10T16:12:47;14.85;;;2.85;;
25567;SDS011;13455;51.480;7.594;2023-01-10T16:15:32;14.80;;;3.22;;
25567;SDS011;13455;51.480;7.594;2023-01-10T16:18:00;14.77;;;3.13;;
25567;SDS011;13455;51.480;7.594;2023-01-10T16:22:56;15.48;;;3.00;;
25567;SDS011;13455;51.480;7.594;2023-01-10T16:25:25;14.33;;;3.07;;
25567;SDS011;13455;51.480;7.594;2023-01-10T16:28:01;17.35;;;3.20;;
25567;SDS011;13455;51.480;7.594;2023-01-10T16:30:28;17.27;;;3.25;;
25567;SDS011;13455;51.480;7.594;2023-01-10T16:32:56;19.20;;;4.05;;
25567;SDS011;13455;51.480;7.594;2023-01-10T16:35:24;16.67;;;3.42;;
25567;SDS011;13455;51.480;7.594;2023-01-10T16:37:54;17.25;;;3.60;;
25567;SDS011;13455;51.480;7.594;2023-01-10T16:42:51;17.67;;;3.08;;
25567;SDS011;13455;51.480;7.594;2023-01-10T16:45:35;18.90;;;3.38;;
25567;SDS011;13455;51.480;7.594;2023-01-10T16:48:01;16.53;;;3.63;;
25567;SDS011;13455;51.480;7.594;2023-01-10T16:50:27;18.10;;;3.40;;
25567;SDS011;13455;51.480;7.594;2023-01-10T16:52:52;14.77;;;2.93;;
25567;SDS011;13455;51.480;7.594;2023-01-10T16:55:19;17.90;;;3.27;;
25567;SDS011;13455;51.480;7.594;2023-01-10T16:57:48;17.83;;;3.53;;
25567;SDS011;13455;51.480;7.594;2023-01-10T17:00:16;18.98;;;3.30;;
25567;SDS011;13455;51.480;7.594;2023-01-10T17:02:42;16.85;;;3.08;;
25567;SDS011;13455;51.480;7.594;2023-01-10T17:05:08;18.08;;;2.97;;
25567;SDS011;13455;51.480;7.594;2023-01-10T17:07:34;17.48;;;3.35;;
25567;SDS011;13455;51.480;7.594;2023-01-10T17:10:00;18.38;;;3.67;;